sensor_id;sensor_type;location;lat;lon;timestamp;pressure;altitude;pressure_sealevel;temperature;humidity
35577;BME280;21680;52.400;16.920;2023-02-13T00:02:04;102720.05;;;5.13;97.66
35577;BME280;21680;52.400;16.920;2023-02-13T00:04:30;102720.41;;;5.14;97.74
35577;BME280;21680;52.400;16.920;2023-02-13T00:06:55;102725.20;;;5.15;97.51
35577;BME280;21680;52.400;16.920;2023-02-13T00:09:21;102723.24;;;5.15;97.10
35577;BME280;21680;52.400;16.920;2023-02-13T00:11:46;102715.27;;;5.15;97.21
35577;BME280;21680;52.400;16.920;2023-02-13T00:14:11;102715.28;;;5.15;97.15
35577;BME280;21680;52.400;16.920;2023-02-13T00:16:36;102714.39;;;5.15;97.01
35577;BME280;21680;52.400;16.920;2023-02-13T00:19:02;102710.15;;;5.16;97.03
35577;BME280;21680;52.400;16.920;2023-02-13T00:21:28;102709.27;;;5.16;96.93
35577;BME280;21680;52.400;16.920;2023-02-13T00:23:53;102707.86;;;5.17;97.00
35577;BME280;21680;52.400;16.920;2023-02-13T00:26:18;102708.38;;;5.17;96.79
35577;BME280;21680;52.400;16.920;2023-02-13T00:28:44;102704.85;;;5.18;96.82
35577;BME280;21680;52.400;16.920;2023-02-13T00:31:19;102702.02;;;5.21;96.90
35577;BME280;21680;52.400;16.920;2023-02-13T00:33:45;102703.98;;;5.22;96.79
35577;BME280;21680;52.400;16.920;2023-02-13T00:36:13;102705.95;;;5.23;96.52
35577;BME280;21680;52.400;16.920;2023-02-13T00:38:40;102708.25;;;5.24;96.53
35577;BME280;21680;52.400;16.920;2023-02-13T00:41:06;102710.55;;;5.23;96.62
35577;BME280;21680;52.400;16.920;2023-02-13T00:43:32;102705.05;;;5.23;96.26
35577;BME280;21680;52.400;16.920;2023-02-13T00:45:59;102701.89;;;5.24;96.34
35577;BME280;21680;52.400;16.920;2023-02-13T00:48:25;102698.55;;;5.27;96.41
35577;BME280;21680;52.400;16.920;2023-02-13T00:50:51;102695.20;;;5.29;96.13
35577;BME280;21680;52.400;16.920;2023-02-13T00:53:19;102703.56;;;5.32;96.05
35577;BME280;21680;52.400;16.920;2023-02-13T00:55:44;102703.04;;;5.33;96.10
35577;BME280;21680;52.400;16.920;2023-02-13T00:58:10;102705.67;;;5.31;95.79
35577;BME280;21680;52.400;16.920;2023-02-13T01:00:36;102709.73;;;5.29;95.84
35577;BME280;21680;52.400;16.920;2023-02-13T01:03:01;102710.07;;;5.27;95.80
35577;BME280;21680;52.400;16.920;2023-02-13T01:05:26;102706.33;;;5.27;95.67
35577;BME280;21680;52.400;16.920;2023-02-13T01:07:52;102705.27;;;5.25;95.54
35577;BME280;21680;52.400;16.920;2023-02-13T01:10:18;102706.30;;;5.23;95.66
35577;BME280;21680;52.400;16.920;2023-02-13T01:12:43;102709.29;;;5.20;95.64
35577;BME280;21680;52.400;16.920;2023-02-13T01:15:09;102705.05;;;5.19;95.54
35577;BME280;21680;52.400;16.920;2023-02-13T01:17:34;102700.23;;;5.17;95.62
35577;BME280;21680;52.400;16.920;2023-02-13T01:19:59;102697.02;;;5.16;95.55
35577;BME280;21680;52.400;16.920;2023-02-13T01:22:25;102697.19;;;5.15;95.51
35577;BME280;21680;52.400;16.920;2023-02-13T01:24:50;102692.39;;;5.13;95.48
35577;BME280;21680;52.400;16.920;2023-02-13T01:27:15;102688.47;;;5.11;95.32
35577;BME280;21680;52.400;16.920;2023-02-13T01:29:41;102691.98;;;5.09;95.42
35577;BME280;21680;52.400;16.920;2023-02-13T01:32:06;102695.35;;;5.08;95.44
35577;BME280;21680;52.400;16.920;2023-02-13T01:34:33;102694.60;;;5.05;95.41
35577;BME280;21680;52.400;16.920;2023-02-13T01:36:59;102690.33;;;5.04;95.46
35577;BME280;21680;52.400;16.920;2023-02-13T01:39:25;102683.94;;;5.03;95.61
35577;BME280;21680;52.400;16.920;2023-02-13T01:41:50;102683.24;;;5.04;95.49
35577;BME280;21680;52.400;16.920;2023-02-13T01:47:17;102679.86;;;5.02;95.56
35577;BME280;21680;52.400;16.920;2023-02-13T01:49:45;102680.73;;;5.02;95.61
35577;BME280;21680;52.400;16.920;2023-02-13T01:52:12;102677.52;;;5.00;95.66
35577;BME280;21680;52.400;16.920;2023-02-13T01:54:39;102676.43;;;4.98;95.59
35577;BME280;21680;52.400;16.920;2023-02-13T01:57:15;102679.42;;;4.96;95.78
35577;BME280;21680;52.400;16.920;2023-02-13T01:59:48;102678.70;;;4.95;95.81
35577;BME280;21680;52.400;16.920;2023-02-13T02:02:16;102673.92;;;4.95;95.90
35577;BME280;21680;52.400;16.920;2023-02-13T02:04:42;102675.14;;;4.94;95.75
35577;BME280;21680;52.400;16.920;2023-02-13T02:07:14;102675.30;;;4.93;95.97
35577;BME280;21680;52.400;16.920;2023-02-13T02:09:42;102670.16;;;4.92;96.00
35577;BME280;21680;52.400;16.920;2023-02-13T02:14:58;102670.16;;;4.92;96.01
35577;BME280;21680;52.400;16.920;2023-02-13T02:17:25;102669.98;;;4.92;96.16
35577;BME280;21680;52.400;16.920;2023-02-13T02:30:57;102658.89;;;4.97;96.41
35577;BME280;21680;52.400;16.920;2023-02-13T02:33:39;102656.90;;;4.95;96.41
35577;BME280;21680;52.400;16.920;2023-02-13T02:39:01;102646.42;;;4.92;96.56
35577;BME280;21680;52.400;16.920;2023-02-13T02:50:02;102644.62;;;4.89;96.86
35577;BME280;21680;52.400;16.920;2023-02-13T03:01:17;102647.88;;;4.80;97.10
35577;BME280;21680;52.400;16.920;2023-02-13T03:07:24;102642.16;;;4.77;97.11
35577;BME280;21680;52.400;16.920;2023-02-13T03:09:57;102641.07;;;4.74;97.23
35577;BME280;21680;52.400;16.920;2023-02-13T03:12:50;102644.77;;;4.73;97.12
35577;BME280;21680;52.400;16.920;2023-02-13T03:15:38;102645.12;;;4.72;97.32
35577;BME280;21680;52.400;16.920;2023-02-13T03:18:24;102645.11;;;4.71;97.29
35577;BME280;21680;52.400;16.920;2023-02-13T03:21:21;102644.20;;;4.70;97.37
35577;BME280;21680;52.400;16.920;2023-02-13T03:39:14;102635.38;;;4.72;97.66
35577;BME280;21680;52.400;16.920;2023-02-13T03:42:05;102639.42;;;4.70;97.65
35577;BME280;21680;52.400;16.920;2023-02-13T03:44:36;102642.25;;;4.69;97.71
35577;BME280;21680;52.400;16.920;2023-02-13T03:47:02;102640.11;;;4.68;97.71
35577;BME280;21680;52.400;16.920;2023-02-13T03:49:34;102638.84;;;4.65;97.80
35577;BME280;21680;52.400;16.920;2023-02-13T03:52:26;102639.17;;;4.64;97.91
35577;BME280;21680;52.400;16.920;2023-02-13T03:55:17;102633.87;;;4.65;98.02
35577;BME280;21680;52.400;16.920;2023-02-13T03:58:07;102636.89;;;4.65;98.03
35577;BME280;21680;52.400;16.920;2023-02-13T04:00:56;102633.86;;;4.64;98.03
35577;BME280;21680;52.400;16.920;2023-02-13T04:03:29;102635.98;;;4.64;98.04
35577;BME280;21680;52.400;16.920;2023-02-13T04:06:03;102632.64;;;4.65;98.25
35577;BME280;21680;52.400;16.920;2023-02-13T04:08:30;102637.08;;;4.66;98.14
35577;BME280;21680;52.400;16.920;2023-02-13T04:11:02;102635.83;;;4.66;98.30
35577;BME280;21680;52.400;16.920;2023-02-13T04:13:34;102631.41;;;4.66;98.38
35577;BME280;21680;52.400;16.920;2023-02-13T04:16:07;102629.12;;;4.67;98.33
35577;BME280;21680;52.400;16.920;2023-02-13T04:18:34;102633.20;;;4.68;98.35
35577;BME280;21680;52.400;16.920;2023-02-13T04:21:03;102631.43;;;4.68;98.31
35577;BME280;21680;52.400;16.920;2023-02-13T04:23:29;102633.90;;;4.68;98.44
35577;BME280;21680;52.400;16.920;2023-02-13T04:25:55;102640.30;;;4.68;98.50
35577;BME280;21680;52.400;16.920;2023-02-13T04:28:21;102643.50;;;4.70;98.71
35577;BME280;21680;52.400;16.920;2023-02-13T04:30:46;102644.95;;;4.73;98.73
35577;BME280;21680;52.400;16.920;2023-02-13T04:33:11;102643.38;;;4.74;98.93
35577;BME280;21680;52.400;16.920;2023-02-13T04:35:37;102646.76;;;4.75;98.81
35577;BME280;21680;52.400;16.920;2023-02-13T04:38:02;102651.72;;;4.76;99.07
35577;BME280;21680;52.400;16.920;2023-02-13T04:40:28;102651.04;;;4.78;99.15
35577;BME280;21680;52.400;16.920;2023-02-13T04:42:53;102648.23;;;4.79;99.06
35577;BME280;21680;52.400;16.920;2023-02-13T04:45:18;102646.63;;;4.80;99.17
35577;BME280;21680;52.400;16.920;2023-02-13T04:47:54;102649.84;;;4.81;99.27
35577;BME280;21680;52.400;16.920;2023-02-13T04:50:20;102645.42;;;4.82;99.47
35577;BME280;21680;52.400;16.920;2023-02-13T04:52:46;102649.70;;;4.84;99.62
35577;BME280;21680;52.400;16.920;2023-02-13T04:55:12;102645.27;;;4.85;99.74
35577;BME280;21680;52.400;16.920;2023-02-13T04:57:37;102647.60;;;4.86;99.71
35577;BME280;21680;52.400;16.920;2023-02-13T05:00:05;102646.89;;;4.86;99.62
35577;BME280;21680;52.400;16.920;2023-02-13T05:02:30;102648.50;;;4.87;99.86
35577;BME280;21680;52.400;16.920;2023-02-13T05:04:56;102650.44;;;4.86;99.76
35577;BME280;21680;52.400;16.920;2023-02-13T05:07:21;102652.39;;;4.87;99.83
35577;BME280;21680;52.400;16.920;2023-02-13T05:09:46;102645.50;;;4.88;99.78
35577;BME280;21680;52.400;16.920;2023-02-13T05:12:11;102643.37;;;4.88;99.81
35577;BME280;21680;52.400;16.920;2023-02-13T05:14:37;102643.89;;;4.87;99.95
35577;BME280;21680;52.400;16.920;2023-02-13T05:17:02;102654.70;;;4.87;99.91
35577;BME280;21680;52.400;16.920;2023-02-13T05:19:27;102661.96;;;4.88;99.95
35577;BME280;21680;52.400;16.920;2023-02-13T05:21:52;102660.03;;;4.89;99.94
35577;BME280;21680;52.400;16.920;2023-02-13T05:24:36;102659.34;;;4.90;99.92
35577;BME280;21680;52.400;16.920;2023-02-13T05:27:01;102662.16;;;4.89;99.97
35577;BME280;21680;52.400;16.920;2023-02-13T05:29:27;102665.90;;;4.91;99.99
35577;BME280;21680;52.400;16.920;2023-02-13T05:31:54;102663.05;;;4.90;100.00
35577;BME280;21680;52.400;16.920;2023-02-13T05:34:22;102656.31;;;4.89;100.00
35577;BME280;21680;52.400;16.920;2023-02-13T05:36:47;102663.74;;;4.88;99.96
35577;BME280;21680;52.400;16.920;2023-02-13T05:39:13;102664.80;;;4.88;100.00
35577;BME280;21680;52.400;16.920;2023-02-13T05:41:40;102666.06;;;4.89;100.00
35577;BME280;21680;52.400;16.920;2023-02-13T05:44:05;102665.88;;;4.89;100.00
35577;BME280;21680;52.400;16.920;2023-02-13T05:46:31;102668.02;;;4.90;100.00
35577;BME280;21680;52.400;16.920;2023-02-13T05:48:56;102666.79;;;4.91;100.00
35577;BME280;21680;52.400;16.920;2023-02-13T05:51:22;102673.88;;;4.91;100.00
35577;BME280;21680;52.400;16.920;2023-02-13T05:53:47;102669.27;;;4.91;100.00
35577;BME280;21680;52.400;16.920;2023-02-13T05:56:12;102671.20;;;4.90;100.00
35577;BME280;21680;52.400;16.920;2023-02-13T05:58:38;102676.88;;;4.90;100.00
35577;BME280;21680;52.400;16.920;2023-02-13T06:01:03;102680.23;;;4.90;100.00
35577;BME280;21680;52.400;16.920;2023-02-13T06:03:30;102680.42;;;4.91;100.00
35577;BME280;21680;52.400;16.920;2023-02-13T06:05:56;102680.78;;;4.90;100.00
35577;BME280;21680;52.400;16.920;2023-02-13T06:08:22;102683.27;;;4.92;100.00
35577;BME280;21680;52.400;16.920;2023-02-13T06:10:47;102682.19;;;4.91;100.00
35577;BME280;21680;52.400;16.920;2023-02-13T06:13:13;102678.65;;;4.90;100.00
35577;BME280;21680;52.400;16.920;2023-02-13T06:15:39;102678.29;;;4.89;100.00
35577;BME280;21680;52.400;16.920;2023-02-13T06:18:05;102681.83;;;4.89;100.00
35577;BME280;21680;52.400;16.920;2023-02-13T06:20:30;102683.42;;;4.89;100.00
35577;BME280;21680;52.400;16.920;2023-02-13T06:22:55;102682.90;;;4.90;100.00
35577;BME280;21680;52.400;16.920;2023-02-13T06:25:21;102686.98;;;4.91;100.00
35577;BME280;21680;52.400;16.920;2023-02-13T06:27:46;102689.11;;;4.92;100.00
35577;BME280;21680;52.400;16.920;2023-02-13T06:30:12;102690.17;;;4.91;100.00
35577;BME280;21680;52.400;16.920;2023-02-13T06:32:38;102690.53;;;4.92;100.00
35577;BME280;21680;52.400;16.920;2023-02-13T06:35:04;102699.40;;;4.93;100.00
35577;BME280;21680;52.400;16.920;2023-02-13T06:37:29;102700.46;;;4.92;100.00
35577;BME280;21680;52.400;16.920;2023-02-13T06:39:55;102700.30;;;4.93;100.00
35577;BME280;21680;52.400;16.920;2023-02-13T06:42:20;102699.06;;;4.93;100.00
35577;BME280;21680;52.400;16.920;2023-02-13T06:44:46;102698.71;;;4.94;100.00
35577;BME280;21680;52.400;16.920;2023-02-13T06:47:11;102701.55;;;4.94;100.00
35577;BME280;21680;52.400;16.920;2023-02-13T06:49:37;102702.77;;;4.94;100.00
35577;BME280;21680;52.400;16.920;2023-02-13T06:52:02;102703.31;;;4.94;100.00
35577;BME280;21680;52.400;16.920;2023-02-13T06:54:28;102705.27;;;4.94;100.00
35577;BME280;21680;52.400;16.920;2023-02-13T06:56:53;102709.01;;;4.96;100.00
35577;BME280;21680;52.400;16.920;2023-02-13T06:59:18;102711.66;;;4.96;100.00
35577;BME280;21680;52.400;16.920;2023-02-13T07:01:44;102711.48;;;4.96;100.00
35577;BME280;21680;52.400;16.920;2023-02-13T07:04:09;102711.31;;;4.96;100.00
35577;BME280;21680;52.400;16.920;2023-02-13T07:06:34;102713.27;;;4.97;100.00
35577;BME280;21680;52.400;16.920;2023-02-13T07:09:01;102716.30;;;4.99;100.00
35577;BME280;21680;52.400;16.920;2023-02-13T07:11:27;102717.39;;;5.00;100.00
35577;BME280;21680;52.400;16.920;2023-02-13T07:13:52;102719.90;;;5.02;100.00
35577;BME280;21680;52.400;16.920;2023-02-13T07:16:17;102717.95;;;5.02;100.00
35577;BME280;21680;52.400;16.920;2023-02-13T07:18:43;102722.38;;;5.02;100.00
35577;BME280;21680;52.400;16.920;2023-02-13T07:21:08;102719.91;;;5.03;100.00
35577;BME280;21680;52.400;16.920;2023-02-13T07:23:33;102721.55;;;5.06;100.00
35577;BME280;21680;52.400;16.920;2023-02-13T07:26:00;102722.10;;;5.07;100.00
35577;BME280;21680;52.400;16.920;2023-02-13T07:28:27;102728.48;;;5.08;100.00
35577;BME280;21680;52.400;16.920;2023-02-13T07:30:52;102733.09;;;5.08;100.00
35577;BME280;21680;52.400;16.920;2023-02-13T07:33:18;102735.58;;;5.08;100.00
35577;BME280;21680;52.400;16.920;2023-02-13T07:35:47;102739.10;;;5.07;99.93
35577;BME280;21680;52.400;16.920;2023-02-13T07:38:13;102738.56;;;5.06;99.92
35577;BME280;21680;52.400;16.920;2023-02-13T07:40:39;102736.43;;;5.06;99.87
35577;BME280;21680;52.400;16.920;2023-02-13T07:43:04;102733.79;;;5.08;99.84
35577;BME280;21680;52.400;16.920;2023-02-13T07:45:29;102735.95;;;5.10;99.87
35577;BME280;21680;52.400;16.920;2023-02-13T07:47:56;102732.23;;;5.11;99.79
35577;BME280;21680;52.400;16.920;2023-02-13T07:50:21;102730.82;;;5.11;99.62
35577;BME280;21680;52.400;16.920;2023-02-13T07:52:57;102726.92;;;5.11;99.50
35577;BME280;21680;52.400;16.920;2023-02-13T07:55:24;102726.20;;;5.11;99.46
35577;BME280;21680;52.400;16.920;2023-02-13T07:57:50;102723.92;;;5.12;99.21
35577;BME280;21680;52.400;16.920;2023-02-13T08:00:17;102721.25;;;5.11;99.13
35577;BME280;21680;52.400;16.920;2023-02-13T08:02:42;102726.94;;;5.12;99.09
35577;BME280;21680;52.400;16.920;2023-02-13T08:05:08;102729.41;;;5.12;99.02
35577;BME280;21680;52.400;16.920;2023-02-13T08:07:33;102727.29;;;5.13;98.70
35577;BME280;21680;52.400;16.920;2023-02-13T08:09:59;102729.25;;;5.13;98.69
35577;BME280;21680;52.400;16.920;2023-02-13T08:12:44;102726.77;;;5.13;98.51
35577;BME280;21680;52.400;16.920;2023-02-13T08:15:14;102727.48;;;5.13;98.42
35577;BME280;21680;52.400;16.920;2023-02-13T08:17:39;102724.29;;;5.13;98.39
35577;BME280;21680;52.400;16.920;2023-02-13T08:20:06;102733.16;;;5.14;98.30
35577;BME280;21680;52.400;16.920;2023-02-13T08:22:32;102730.68;;;5.14;97.95
35577;BME280;21680;52.400;16.920;2023-02-13T08:24:57;102727.86;;;5.16;97.77
35577;BME280;21680;52.400;16.920;2023-02-13T08:27:23;102725.42;;;5.19;97.66
35577;BME280;21680;52.400;16.920;2023-02-13T08:29:49;102729.49;;;5.20;97.53
35577;BME280;21680;52.400;16.920;2023-02-13T08:32:15;102730.75;;;5.22;97.40
35577;BME280;21680;52.400;16.920;2023-02-13T08:34:41;102725.63;;;5.23;97.16
35577;BME280;21680;52.400;16.920;2023-02-13T08:37:06;102730.05;;;5.24;97.15
35577;BME280;21680;52.400;16.920;2023-02-13T08:39:31;102723.33;;;5.24;97.04
35577;BME280;21680;52.400;16.920;2023-02-13T08:41:56;102724.92;;;5.24;96.83
35577;BME280;21680;52.400;16.920;2023-02-13T08:44:22;102724.39;;;5.24;96.44
35577;BME280;21680;52.400;16.920;2023-02-13T08:46:47;102727.07;;;5.26;96.08
35577;BME280;21680;52.400;16.920;2023-02-13T08:49:12;102726.73;;;5.28;96.04
35577;BME280;21680;52.400;16.920;2023-02-13T08:51:38;102727.63;;;5.29;96.00
35577;BME280;21680;52.400;16.920;2023-02-13T08:54:03;102728.71;;;5.31;95.94
35577;BME280;21680;52.400;16.920;2023-02-13T08:56:28;102724.48;;;5.31;95.72
35577;BME280;21680;52.400;16.920;2023-02-13T08:58:54;102723.05;;;5.31;95.58
35577;BME280;21680;52.400;16.920;2023-02-13T09:01:19;102727.13;;;5.31;95.24
35577;BME280;21680;52.400;16.920;2023-02-13T09:03:44;102727.31;;;5.31;94.96
35577;BME280;21680;52.400;16.920;2023-02-13T09:06:10;102724.30;;;5.32;94.66
35577;BME280;21680;52.400;16.920;2023-02-13T09:08:35;102719.69;;;5.32;94.54
35577;BME280;21680;52.400;16.920;2023-02-13T09:11:02;102718.80;;;5.32;94.06
35577;BME280;21680;52.400;16.920;2023-02-13T09:13:29;102718.46;;;5.33;93.76
35577;BME280;21680;52.400;16.920;2023-02-13T09:15:58;102715.45;;;5.33;93.56
35577;BME280;21680;52.400;16.920;2023-02-13T09:18:24;102718.30;;;5.35;93.52
35577;BME280;21680;52.400;16.920;2023-02-13T09:21:03;102720.45;;;5.36;93.33
35577;BME280;21680;52.400;16.920;2023-02-13T09:23:34;102728.27;;;5.38;93.24
35577;BME280;21680;52.400;16.920;2023-02-13T09:26:01;102725.64;;;5.41;93.25
35577;BME280;21680;52.400;16.920;2023-02-13T09:28:28;102724.24;;;5.42;93.20
35577;BME280;21680;52.400;16.920;2023-02-13T09:30:54;102723.90;;;5.43;93.06
35577;BME280;21680;52.400;16.920;2023-02-13T09:33:19;102718.94;;;5.44;93.01
35577;BME280;21680;52.400;16.920;2023-02-13T09:35:45;102719.84;;;5.45;92.97
35577;BME280;21680;52.400;16.920;2023-02-13T09:38:10;102721.45;;;5.45;92.99
35577;BME280;21680;52.400;16.920;2023-02-13T09:43:34;102722.48;;;5.44;92.61
35577;BME280;21680;52.400;16.920;2023-02-13T09:46:01;102723.59;;;5.47;92.65
35577;BME280;21680;52.400;16.920;2023-02-13T09:48:32;102723.77;;;5.48;92.53
35577;BME280;21680;52.400;16.920;2023-02-13T09:50:58;102727.48;;;5.47;92.23
35577;BME280;21680;52.400;16.920;2023-02-13T09:53:26;102728.55;;;5.47;92.04
35577;BME280;21680;52.400;16.920;2023-02-13T09:56:20;102725.86;;;5.45;91.84
35577;BME280;21680;52.400;16.920;2023-02-13T09:58:58;102722.33;;;5.45;91.72
35577;BME280;21680;52.400;16.920;2023-02-13T10:01:44;102722.85;;;5.45;91.63
35577;BME280;21680;52.400;16.920;2023-02-13T10:05:11;102727.66;;;5.46;91.58
35577;BME280;21680;52.400;16.920;2023-02-13T10:07:21;102729.79;;;5.47;91.48
35577;BME280;21680;52.400;16.920;2023-02-13T10:12:59;102724.85;;;5.49;91.30
35577;BME280;21680;52.400;16.920;2023-02-13T10:15:50;102725.40;;;5.50;91.07
35577;BME280;21680;52.400;16.920;2023-02-13T10:18:21;102724.69;;;5.50;90.97
35577;BME280;21680;52.400;16.920;2023-02-13T10:20:55;102732.31;;;5.50;90.77
35577;BME280;21680;52.400;16.920;2023-02-13T10:23:38;102727.70;;;5.49;90.69
35577;BME280;21680;52.400;16.920;2023-02-13T10:26:17;102732.13;;;5.50;90.57
35577;BME280;21680;52.400;16.920;2023-02-13T10:28:50;102729.65;;;5.51;90.50
35577;BME280;21680;52.400;16.920;2023-02-13T10:31:39;102734.11;;;5.52;90.44
35577;BME280;21680;52.400;16.920;2023-02-13T10:34:13;102722.59;;;5.53;90.28
35577;BME280;21680;52.400;16.920;2023-02-13T10:36:45;102722.26;;;5.54;90.22
35577;BME280;21680;52.400;16.920;2023-02-13T10:39:28;102720.50;;;5.57;90.27
35577;BME280;21680;52.400;16.920;2023-02-13T10:55:54;102709.91;;;5.62;89.38
35577;BME280;21680;52.400;16.920;2023-02-13T11:03:35;102707.09;;;5.64;88.64
35577;BME280;21680;52.400;16.920;2023-02-13T11:06:05;102699.64;;;5.64;88.70
35577;BME280;21680;52.400;16.920;2023-02-13T11:08:34;102704.08;;;5.65;88.35
35577;BME280;21680;52.400;16.920;2023-02-13T11:11:03;102704.09;;;5.64;87.98
35577;BME280;21680;52.400;16.920;2023-02-13T11:13:29;102696.10;;;5.64;88.09
35577;BME280;21680;52.400;16.920;2023-02-13T11:16:00;102696.30;;;5.66;88.15
35577;BME280;21680;52.400;16.920;2023-02-13T11:18:28;102703.58;;;5.67;88.09
35577;BME280;21680;52.400;16.920;2023-02-13T11:21:03;102699.15;;;5.68;87.98
35577;BME280;21680;52.400;16.920;2023-02-13T11:23:44;102703.59;;;5.67;88.01
35577;BME280;21680;52.400;16.920;2023-02-13T11:26:20;102703.57;;;5.66;87.56
35577;BME280;21680;52.400;16.920;2023-02-13T11:28:50;102704.98;;;5.65;87.88
35577;BME280;21680;52.400;16.920;2023-02-13T11:31:20;102700.57;;;5.67;87.83
35577;BME280;21680;52.400;16.920;2023-02-13T11:33:47;102696.84;;;5.66;87.71
35577;BME280;21680;52.400;16.920;2023-02-13T11:36:24;102694.88;;;5.66;87.69
35577;BME280;21680;52.400;16.920;2023-02-13T11:39:01;102696.66;;;5.67;87.67
35577;BME280;21680;52.400;16.920;2023-02-13T11:41:27;102690.83;;;5.68;87.76
35577;BME280;21680;52.400;16.920;2023-02-13T11:43:58;102692.59;;;5.67;87.66
35577;BME280;21680;52.400;16.920;2023-02-13T11:46:48;102688.16;;;5.68;87.65
35577;BME280;21680;52.400;16.920;2023-02-13T11:49:43;102691.39;;;5.71;87.92
35577;BME280;21680;52.400;16.920;2023-02-13T11:52:22;102686.27;;;5.75;87.91
35577;BME280;21680;52.400;16.920;2023-02-13T11:54:58;102683.78;;;5.74;87.77
35577;BME280;21680;52.400;16.920;2023-02-13T11:57:35;102681.65;;;5.74;87.67
35577;BME280;21680;52.400;16.920;2023-02-13T12:02:49;102674.70;;;5.71;87.73
35577;BME280;21680;52.400;16.920;2023-02-13T12:05:21;102673.81;;;5.70;87.57
35577;BME280;21680;52.400;16.920;2023-02-13T12:07:47;102680.52;;;5.67;87.34
35577;BME280;21680;52.400;16.920;2023-02-13T12:10:27;102685.80;;;5.63;87.27
35577;BME280;21680;52.400;16.920;2023-02-13T12:12:58;102684.73;;;5.62;87.22
35577;BME280;21680;52.400;16.920;2023-02-13T12:15:36;102686.15;;;5.62;87.23
35577;BME280;21680;52.400;16.920;2023-02-13T12:21:23;102686.35;;;5.65;87.30
35577;BME280;21680;52.400;16.920;2023-02-13T12:24:13;102684.75;;;5.65;87.15
35577;BME280;21680;52.400;16.920;2023-02-13T12:26:52;102685.45;;;5.64;87.15
35577;BME280;21680;52.400;16.920;2023-02-13T12:35:22;102675.60;;;5.71;87.47
35577;BME280;21680;52.400;16.920;2023-02-13T12:38:15;102668.31;;;5.71;87.13
35577;BME280;21680;52.400;16.920;2023-02-13T12:40:50;102672.56;;;5.70;87.09
35577;BME280;21680;52.400;16.920;2023-02-13T12:43:50;102668.86;;;5.71;87.06
35577;BME280;21680;52.400;16.920;2023-02-13T12:49:45;102661.73;;;5.70;86.85
35577;BME280;21680;52.400;16.920;2023-02-13T12:52:35;102655.52;;;5.68;86.64
35577;BME280;21680;52.400;16.920;2023-02-13T12:58:00;102637.95;;;5.68;86.59
35577;BME280;21680;52.400;16.920;2023-02-13T13:00:47;102644.54;;;5.69;86.50
35577;BME280;21680;52.400;16.920;2023-02-13T13:06:25;102637.42;;;5.67;86.22
35577;BME280;21680;52.400;16.920;2023-02-13T13:19:54;102627.52;;;5.70;85.68
35577;BME280;21680;52.400;16.920;2023-02-13T13:22:35;102630.53;;;5.71;85.54
35577;BME280;21680;52.400;16.920;2023-02-13T13:27:54;102625.56;;;5.70;85.43
35577;BME280;21680;52.400;16.920;2023-02-13T13:30:27;102617.76;;;5.70;85.76
35577;BME280;21680;52.400;16.920;2023-02-13T13:32:59;102614.76;;;5.72;85.53
35577;BME280;21680;52.400;16.920;2023-02-13T13:35:27;102605.70;;;5.71;85.48
35577;BME280;21680;52.400;16.920;2023-02-13T13:38:00;102592.77;;;5.71;85.47
35577;BME280;21680;52.400;16.920;2023-02-13T13:40:41;102591.51;;;5.69;85.40
35577;BME280;21680;52.400;16.920;2023-02-13T13:49:08;102567.40;;;5.72;85.62
35577;BME280;21680;52.400;16.920;2023-02-13T13:51:37;102572.73;;;5.73;85.71
35577;BME280;21680;52.400;16.920;2023-02-13T13:59:53;102597.58;;;5.75;85.43
35577;BME280;21680;52.400;16.920;2023-02-13T14:07:54;102600.57;;;5.72;85.09
35577;BME280;21680;52.400;16.920;2023-02-13T14:12:47;102592.94;;;5.71;85.00
35577;BME280;21680;52.400;16.920;2023-02-13T14:26:17;102586.42;;;5.77;84.72
35577;BME280;21680;52.400;16.920;2023-02-13T14:31:25;102578.63;;;5.78;84.35
35577;BME280;21680;52.400;16.920;2023-02-13T14:33:58;102577.55;;;5.79;84.05
35577;BME280;21680;52.400;16.920;2023-02-13T14:36:30;102586.95;;;5.78;83.59
35577;BME280;21680;52.400;16.920;2023-02-13T14:47:19;102576.64;;;5.75;82.41
35577;BME280;21680;52.400;16.920;2023-02-13T14:49:52;102573.80;;;5.75;82.39
35577;BME280;21680;52.400;16.920;2023-02-13T14:52:26;102568.49;;;5.76;82.59
35577;BME280;21680;52.400;16.920;2023-02-13T14:55:06;102563.52;;;5.76;82.16
35577;BME280;21680;52.400;16.920;2023-02-13T14:57:50;102577.90;;;5.77;81.97
35577;BME280;21680;52.400;16.920;2023-02-13T15:00:25;102577.90;;;5.77;81.88
35577;BME280;21680;52.400;16.920;2023-02-13T15:02:55;102575.95;;;5.78;81.78
35577;BME280;21680;52.400;16.920;2023-02-13T15:05:30;102572.95;;;5.77;81.63
35577;BME280;21680;52.400;16.920;2023-02-13T15:15:39;102576.27;;;5.73;81.18
35577;BME280;21680;52.400;16.920;2023-02-13T15:18:14;102580.34;;;5.72;81.04
35577;BME280;21680;52.400;16.920;2023-02-13T15:20:42;102587.08;;;5.71;81.15
35577;BME280;21680;52.400;16.920;2023-02-13T15:23:18;102592.05;;;5.70;81.01
35577;BME280;21680;52.400;16.920;2023-02-13T15:25:44;102593.29;;;5.70;81.16
35577;BME280;21680;52.400;16.920;2023-02-13T15:28:18;102590.80;;;5.71;81.03
35577;BME280;21680;52.400;16.920;2023-02-13T15:31:20;102587.61;;;5.71;80.95
35577;BME280;21680;52.400;16.920;2023-02-13T15:33:48;102581.05;;;5.71;80.77
35577;BME280;21680;52.400;16.920;2023-02-13T15:36:20;102580.14;;;5.68;80.69
35577;BME280;21680;52.400;16.920;2023-02-13T15:38:45;102584.38;;;5.66;80.36
35577;BME280;21680;52.400;16.920;2023-02-13T15:41:17;102579.56;;;5.62;80.42
35577;BME280;21680;52.400;16.920;2023-02-13T15:43:47;102575.30;;;5.62;80.54
35577;BME280;21680;52.400;16.920;2023-02-13T15:46:30;102579.20;;;5.61;80.41
35577;BME280;21680;52.400;16.920;2023-02-13T15:48:59;102575.82;;;5.60;80.47